createdAt,value
2022-09-17T00:01:32.972Z,5.38
2022-09-17T00:04:04.033Z,6.97
2022-09-17T00:06:35.694Z,7.70
2022-09-17T00:09:08.174Z,10.73
2022-09-17T00:11:40.903Z,10.10
2022-09-17T00:14:15.275Z,10.60
2022-09-17T00:16:47.714Z,12.02
2022-09-17T00:19:23.368Z,13.25
2022-09-17T00:21:51.801Z,15.23
2022-09-17T00:24:20.793Z,18.05
2022-09-17T00:26:50.065Z,16.70
2022-09-17T00:29:17.675Z,21.88
2022-09-17T00:31:44.969Z,20.67
2022-09-17T00:34:12.316Z,13.07
2022-09-17T00:36:40.227Z,14.35
2022-09-17T00:39:11.317Z,14.70
2022-09-17T00:41:39.741Z,15.45
2022-09-17T00:44:53.805Z,13.13
2022-09-17T00:47:39.637Z,16.40
2022-09-17T00:53:06.916Z,14.73
2022-09-17T00:55:57.024Z,13.50
2022-09-17T00:58:26.260Z,8.45
2022-09-17T01:00:53.979Z,11.93
2022-09-17T01:03:22.021Z,8.82
2022-09-17T01:06:14.567Z,20.00
2022-09-17T01:09:07.727Z,16.17
2022-09-17T01:12:30.029Z,10.80
2022-09-17T01:15:24.302Z,11.52
2022-09-17T01:18:33.960Z,12.60
2022-09-17T01:21:38.205Z,13.75
2022-09-17T01:24:44.717Z,13.07
2022-09-17T01:27:35.060Z,15.25
2022-09-17T01:30:40.189Z,9.50
2022-09-17T01:33:28.774Z,8.05
2022-09-17T01:36:34.340Z,10.95
2022-09-17T01:39:45.260Z,6.78
2022-09-17T01:42:47.562Z,8.13
2022-09-17T01:45:30.923Z,9.43
2022-09-17T01:48:19.834Z,13.52
2022-09-17T01:51:14.775Z,8.95
2022-09-17T01:53:59.651Z,6.40
2022-09-17T01:56:36.809Z,9.63
2022-09-17T01:59:22.992Z,11.07
2022-09-17T02:01:58.366Z,9.30
2022-09-17T02:07:22.696Z,9.45
2022-09-17T02:10:37.049Z,6.15
2022-09-17T02:13:16.996Z,6.80
2022-09-17T02:15:54.101Z,6.18
2022-09-17T02:18:54.370Z,6.07
2022-09-17T02:21:58.607Z,4.00
2022-09-17T02:25:11.330Z,7.18
2022-09-17T02:27:58.868Z,7.35
2022-09-17T02:30:26.385Z,6.38
2022-09-17T02:32:55.727Z,6.18
2022-09-17T02:35:23.720Z,5.50
2022-09-17T02:37:53.093Z,5.93
2022-09-17T02:40:24.241Z,3.83
2022-09-17T02:43:56.976Z,7.32
2022-09-17T02:46:58.924Z,7.05
2022-09-17T02:50:14.883Z,4.00
2022-09-17T02:53:15.440Z,4.50
2022-09-17T02:56:08.917Z,4.20
2022-09-17T02:59:12.743Z,4.28
2022-09-17T03:02:18.390Z,2.97
2022-09-17T03:04:49.766Z,2.40
2022-09-17T03:07:20.180Z,4.40
2022-09-17T03:09:47.771Z,3.60
2022-09-17T03:12:16.562Z,2.80
2022-09-17T03:14:43.888Z,3.38
2022-09-17T03:17:12.247Z,3.90
2022-09-17T03:19:39.542Z,3.90
2022-09-17T03:22:06.875Z,3.03
2022-09-17T03:24:34.021Z,3.03
2022-09-17T03:27:01.345Z,1.83
2022-09-17T03:29:28.688Z,3.92
2022-09-17T03:31:55.873Z,1.60
2022-09-17T03:34:23.857Z,3.03
2022-09-17T03:36:51.153Z,5.57
2022-09-17T03:39:18.481Z,2.15
2022-09-17T03:41:46.241Z,3.47
2022-09-17T03:44:15.241Z,3.15
2022-09-17T03:46:43.518Z,3.08
2022-09-17T03:49:10.816Z,1.48
2022-09-17T03:51:37.951Z,1.58
2022-09-17T03:54:05.311Z,2.33
2022-09-17T03:56:32.982Z,1.08
2022-09-17T03:59:01.893Z,1.15
2022-09-17T04:01:29.929Z,1.98
2022-09-17T04:03:57.954Z,1.90
2022-09-17T04:06:25.381Z,3.20
2022-09-17T04:08:53.056Z,1.92
2022-09-17T04:11:20.567Z,1.10
2022-09-17T04:13:47.886Z,2.70
2022-09-17T04:16:15.457Z,2.35
2022-09-17T04:18:42.722Z,1.17
2022-09-17T04:21:09.973Z,4.93
2022-09-17T04:23:37.116Z,0.90
2022-09-17T04:26:04.603Z,1.45
2022-09-17T04:28:31.804Z,0.85
2022-09-17T04:30:59.012Z,1.50
2022-09-17T04:33:26.448Z,1.80
2022-09-17T04:35:54.292Z,1.92
2022-09-17T04:38:22.405Z,1.55
2022-09-17T04:40:51.473Z,1.45
2022-09-17T04:43:19.008Z,1.13
2022-09-17T04:45:49.247Z,3.08
2022-09-17T04:48:17.233Z,1.55
2022-09-17T04:50:44.785Z,2.00
2022-09-17T04:53:12.826Z,1.13
2022-09-17T04:55:40.448Z,1.73
2022-09-17T04:58:07.634Z,1.38
2022-09-17T05:00:35.571Z,1.88
2022-09-17T05:03:03.562Z,2.45
2022-09-17T05:05:30.796Z,1.90
2022-09-17T05:07:58.308Z,3.65
2022-09-17T05:10:26.302Z,1.50
2022-09-17T05:12:56.383Z,0.93
2022-09-17T05:15:26.009Z,1.35
2022-09-17T05:17:53.524Z,2.00
2022-09-17T05:20:21.093Z,4.20
2022-09-17T05:22:51.880Z,2.70
2022-09-17T05:25:25.070Z,2.50
2022-09-17T05:27:56.291Z,2.28
2022-09-17T05:30:23.901Z,1.45
2022-09-17T05:33:05.656Z,1.20
2022-09-17T05:35:35.878Z,1.30
2022-09-17T05:38:07.601Z,1.80
2022-09-17T05:40:38.362Z,1.10
2022-09-17T05:43:07.255Z,1.48
2022-09-17T05:45:36.127Z,2.00
2022-09-17T05:48:13.156Z,1.38
2022-09-17T05:50:41.452Z,1.38
2022-09-17T05:53:12.690Z,1.02
2022-09-17T05:55:40.517Z,2.80
2022-09-17T05:58:18.785Z,1.15
2022-09-17T06:00:48.751Z,1.10
2022-09-17T06:03:22.044Z,2.00
2022-09-17T06:05:59.072Z,3.30
2022-09-17T06:08:28.850Z,3.03
2022-09-17T06:11:01.521Z,2.05
2022-09-17T06:13:29.850Z,16.20
2022-09-17T06:15:57.366Z,3.03
2022-09-17T06:18:24.727Z,6.93
2022-09-17T06:21:00.852Z,2.45
2022-09-17T06:23:35.150Z,1.85
2022-09-17T06:26:04.903Z,1.85
2022-09-17T06:28:34.259Z,2.50
2022-09-17T06:31:06.594Z,3.15
2022-09-17T06:33:34.908Z,1.35
2022-09-17T06:36:13.080Z,3.50
2022-09-17T06:38:41.373Z,1.65
2022-09-17T06:41:08.799Z,1.55
2022-09-17T06:43:36.130Z,1.45
2022-09-17T06:46:06.164Z,9.57
2022-09-17T06:48:35.802Z,2.70
2022-09-17T06:51:10.628Z,12.57
2022-09-17T06:53:38.977Z,3.40
2022-09-17T06:56:09.034Z,1.48
2022-09-17T06:58:37.546Z,1.08
2022-09-17T07:01:05.766Z,2.40
2022-09-17T07:03:34.578Z,1.23
2022-09-17T07:06:02.081Z,1.48
2022-09-17T07:08:32.360Z,0.70
2022-09-17T07:10:59.729Z,1.63
2022-09-17T07:13:27.206Z,2.28
2022-09-17T07:15:57.913Z,4.25
2022-09-17T07:18:26.789Z,0.50
2022-09-17T07:20:57.035Z,0.50
2022-09-17T07:23:31.086Z,4.03
2022-09-17T07:26:03.319Z,3.38
2022-09-17T07:28:30.797Z,5.90
2022-09-17T07:30:58.467Z,1.10
2022-09-17T07:33:28.072Z,0.65
2022-09-17T07:36:06.190Z,2.00
2022-09-17T07:38:35.074Z,3.55
2022-09-17T07:41:14.983Z,1.20
2022-09-17T07:43:43.545Z,1.33
2022-09-17T07:46:20.566Z,3.35
2022-09-17T07:48:49.180Z,4.05
2022-09-17T07:51:24.113Z,1.63
2022-09-17T07:53:58.114Z,1.80
2022-09-17T07:56:27.582Z,1.23
2022-09-17T07:58:55.618Z,3.13
2022-09-17T08:01:23.266Z,2.72
2022-09-17T08:03:54.279Z,4.15
2022-09-17T08:06:28.152Z,4.80
2022-09-17T08:08:58.672Z,1.90
2022-09-17T08:11:54.647Z,3.17
2022-09-17T08:14:16.856Z,4.90
2022-09-17T08:16:47.528Z,6.55
2022-09-17T08:19:19.018Z,3.47
2022-09-17T08:21:47.320Z,2.05
2022-09-17T08:24:14.609Z,3.15
2022-09-17T08:26:42.073Z,3.65
2022-09-17T08:29:11.267Z,3.25
2022-09-17T08:31:38.576Z,1.65
2022-09-17T08:34:10.204Z,1.73
2022-09-17T08:36:38.745Z,4.03
2022-09-17T08:39:05.993Z,4.30
2022-09-17T08:42:05.486Z,3.15
2022-09-17T08:44:42.904Z,5.13
2022-09-17T08:47:38.717Z,5.60
2022-09-17T08:50:34.614Z,6.88
2022-09-17T08:53:39.197Z,2.58
2022-09-17T08:56:19.917Z,6.70
2022-09-17T08:59:21.561Z,4.13
2022-09-17T09:02:04.186Z,2.20
2022-09-17T09:04:57.258Z,5.43
2022-09-17T09:07:35.003Z,2.92
2022-09-17T09:10:29.527Z,3.28
2022-09-17T09:13:00.263Z,4.80
2022-09-17T09:15:52.325Z,8.00
2022-09-17T09:18:27.287Z,3.03
2022-09-17T09:21:13.057Z,3.80
2022-09-17T09:24:04.338Z,4.00
2022-09-17T09:26:45.099Z,7.05
2022-09-17T09:29:30.405Z,3.78
2022-09-17T09:33:01.692Z,2.08
2022-09-17T09:35:32.114Z,3.30
2022-09-17T09:38:09.705Z,2.80
2022-09-17T09:40:57.268Z,4.40
2022-09-17T09:43:59.843Z,1.65
2022-09-17T09:47:13.271Z,3.35
2022-09-17T09:50:05.429Z,3.67
2022-09-17T09:53:06.434Z,2.83
2022-09-17T09:56:28.501Z,1.48
2022-09-17T09:58:55.694Z,8.38
2022-09-17T10:01:23.108Z,5.70
2022-09-17T10:03:54.013Z,2.55
2022-09-17T10:06:21.491Z,1.45
2022-09-17T10:08:57.753Z,1.40
2022-09-17T10:11:35.084Z,2.58
2022-09-17T10:14:28.521Z,7.85
2022-09-17T10:17:21.597Z,4.70
2022-09-17T10:20:07.778Z,7.95
2022-09-17T10:22:45.892Z,0.90
2022-09-17T10:25:34.771Z,3.60
2022-09-17T10:28:06.230Z,1.50
2022-09-17T10:30:35.081Z,4.05
2022-09-17T10:33:14.082Z,6.45
2022-09-17T10:35:41.712Z,1.00
2022-09-17T10:38:46.357Z,5.32
2022-09-17T10:41:22.419Z,3.35
2022-09-17T10:43:51.466Z,3.80
2022-09-17T10:46:29.324Z,2.05
2022-09-17T10:49:39.504Z,3.85
2022-09-17T10:52:34.261Z,2.53
2022-09-17T10:55:34.009Z,2.65
2022-09-17T10:58:40.390Z,3.40
2022-09-17T11:01:28.579Z,1.85
2022-09-17T11:04:29.661Z,2.35
2022-09-17T11:07:33.554Z,1.58
2022-09-17T11:10:33.197Z,3.67
2022-09-17T11:13:47.088Z,1.55
2022-09-17T11:16:44.658Z,2.63
2022-09-17T11:19:57.044Z,0.93
2022-09-17T11:23:07.053Z,1.15
2022-09-17T11:26:05.957Z,0.40
2022-09-17T11:29:22.673Z,1.65
2022-09-17T11:32:29.688Z,1.33
2022-09-17T11:35:11.623Z,0.75
2022-09-17T11:38:39.660Z,3.40
2022-09-17T11:41:17.329Z,1.83
2022-09-17T11:44:20.109Z,3.15
2022-09-17T11:47:10.897Z,1.42
2022-09-17T11:50:00.345Z,0.75
2022-09-17T11:52:44.938Z,4.80
2022-09-17T11:55:46.502Z,1.20
2022-09-17T11:58:51.342Z,1.73
2022-09-17T12:01:58.050Z,2.05
2022-09-17T12:07:48.408Z,1.75
2022-09-17T12:10:43.589Z,1.58
2022-09-17T12:13:22.861Z,1.90
2022-09-17T12:16:01.420Z,0.70
2022-09-17T12:18:50.771Z,0.95
2022-09-17T12:21:55.101Z,2.42
2022-09-17T12:24:29.024Z,2.08
2022-09-17T12:26:56.130Z,0.60
2022-09-17T12:30:05.451Z,1.30
2022-09-17T12:33:18.852Z,1.33
2022-09-17T12:36:13.173Z,3.40
2022-09-17T12:39:13.283Z,1.48
2022-09-17T12:41:47.157Z,0.98
2022-09-17T12:44:41.441Z,2.42
2022-09-17T12:47:45.157Z,1.05
2022-09-17T12:51:13.627Z,1.77
2022-09-17T12:54:24.897Z,2.97
2022-09-17T12:57:16.601Z,1.05
2022-09-17T13:00:05.223Z,1.05
2022-09-17T13:02:49.451Z,0.55
2022-09-17T13:05:39.077Z,1.70
2022-09-17T13:08:55.561Z,2.45
2022-09-17T13:12:10.723Z,0.30
2022-09-17T13:15:03.568Z,3.20
2022-09-17T13:18:26.242Z,1.50
2022-09-17T13:21:17.195Z,1.15
2022-09-17T13:23:49.113Z,1.17
2022-09-17T13:26:21.310Z,2.10
2022-09-17T13:28:52.399Z,0.73
2022-09-17T13:31:44.553Z,4.28
2022-09-17T13:34:17.910Z,0.95
2022-09-17T13:36:59.497Z,0.88
2022-09-17T13:39:34.029Z,1.17
2022-09-17T13:42:35.226Z,3.03
2022-09-17T13:45:13.505Z,2.03
2022-09-17T13:48:02.381Z,4.75
2022-09-17T13:50:35.195Z,2.10
2022-09-17T13:53:14.525Z,3.17
2022-09-17T13:55:52.944Z,1.15
2022-09-17T13:58:20.031Z,3.53
2022-09-17T14:01:14.560Z,2.25
2022-09-17T14:03:44.107Z,0.70
2022-09-17T14:06:11.369Z,3.42
2022-09-17T14:08:44.263Z,3.63
2022-09-17T14:11:23.491Z,1.40
2022-09-17T14:14:04.164Z,1.38
2022-09-17T14:16:38.616Z,0.70
2022-09-17T14:19:47.751Z,1.45
2022-09-17T14:22:25.519Z,1.33
2022-09-17T14:27:50.860Z,1.30
2022-09-17T14:30:30.359Z,0.90
2022-09-17T14:33:26.192Z,1.10
2022-09-17T14:36:10.569Z,2.67
2022-09-17T14:38:48.150Z,1.92
2022-09-17T14:41:15.177Z,1.05
2022-09-17T14:44:08.160Z,3.10
2022-09-17T14:46:49.836Z,1.55
2022-09-17T14:49:33.425Z,2.08
2022-09-17T14:52:02.740Z,3.35
2022-09-17T14:54:36.016Z,0.98
2022-09-17T14:57:09.618Z,1.90
2022-09-17T14:59:57.425Z,0.90
2022-09-17T15:02:37.050Z,3.13
2022-09-17T15:05:27.037Z,3.60
2022-09-17T15:08:11.215Z,4.25
2022-09-17T15:11:00.198Z,1.23
2022-09-17T15:13:48.693Z,1.67
2022-09-17T15:16:27.097Z,1.65
2022-09-17T15:19:06.488Z,1.60
2022-09-17T15:21:49.022Z,3.53
2022-09-17T15:24:34.810Z,2.65
2022-09-17T15:27:39.601Z,2.75
2022-09-17T15:30:22.660Z,3.20
2022-09-17T15:32:57.074Z,1.30
2022-09-17T15:35:33.989Z,1.27
2022-09-17T15:38:24.082Z,2.88
2022-09-17T15:40:52.765Z,2.00
2022-09-17T15:43:33.030Z,1.85
2022-09-17T15:46:31.422Z,2.97
2022-09-17T15:49:02.496Z,2.85
2022-09-17T15:51:34.756Z,1.95
2022-09-17T15:54:31.462Z,1.35
2022-09-17T15:57:01.473Z,1.20
2022-09-17T15:59:33.355Z,1.23
2022-09-17T16:02:02.267Z,1.70
2022-09-17T16:04:34.487Z,0.85
2022-09-17T16:07:07.887Z,1.20
2022-09-17T16:09:50.650Z,1.40
2022-09-17T16:12:25.998Z,1.10
2022-09-17T16:15:01.337Z,3.00
2022-09-17T16:17:45.161Z,2.53
2022-09-17T16:20:25.710Z,1.02
2022-09-17T16:22:53.861Z,3.17
2022-09-17T16:25:27.150Z,1.90
2022-09-17T16:28:11.102Z,1.08
2022-09-17T16:30:47.720Z,2.97
2022-09-17T16:33:17.599Z,0.73
2022-09-17T16:35:44.963Z,4.80
2022-09-17T16:38:12.936Z,2.72
2022-09-17T16:40:49.621Z,4.30
2022-09-17T16:43:16.812Z,2.33
2022-09-17T16:46:07.346Z,2.75
2022-09-17T16:48:34.913Z,3.85
2022-09-17T16:51:08.677Z,2.47
2022-09-17T16:53:36.003Z,2.45
2022-09-17T16:56:11.971Z,0.90
2022-09-17T16:58:40.152Z,1.63
2022-09-17T17:01:15.714Z,4.50
2022-09-17T17:03:45.431Z,3.22
2022-09-17T17:06:18.172Z,1.48
2022-09-17T17:08:45.513Z,1.63
2022-09-17T17:11:13.934Z,1.73
2022-09-17T17:13:45.154Z,6.07
2022-09-17T17:16:15.019Z,5.82
2022-09-17T17:18:44.593Z,3.10
2022-09-17T17:21:14.538Z,2.17
2022-09-17T17:23:44.829Z,5.32
2022-09-17T17:26:12.609Z,1.10
2022-09-17T17:28:40.000Z,3.08
2022-09-17T17:31:07.550Z,6.15
2022-09-17T17:33:35.549Z,1.50
2022-09-17T17:36:08.170Z,10.40
2022-09-17T17:38:37.089Z,4.72
2022-09-17T17:41:15.529Z,3.75
2022-09-17T17:43:42.727Z,3.45
2022-09-17T17:46:12.277Z,1.80
2022-09-17T17:48:39.840Z,2.92
2022-09-17T17:51:11.468Z,1.88
2022-09-17T17:53:42.857Z,3.50
2022-09-17T17:56:11.876Z,3.70
2022-09-17T17:58:40.182Z,5.70
2022-09-17T18:01:31.406Z,6.55
2022-09-17T18:04:02.650Z,7.15
2022-09-17T18:06:30.875Z,4.22
2022-09-17T18:08:58.397Z,2.10
2022-09-17T18:11:26.155Z,4.75
2022-09-17T18:14:00.340Z,5.03
2022-09-17T18:16:29.224Z,4.00
2022-09-17T18:18:58.316Z,2.50
2022-09-17T18:21:26.828Z,2.03
2022-09-17T18:23:54.541Z,4.63
2022-09-17T18:26:27.807Z,9.57
2022-09-17T18:28:55.734Z,3.38
2022-09-17T18:31:29.539Z,15.38
2022-09-17T18:34:00.838Z,5.40
2022-09-17T18:36:32.486Z,9.40
2022-09-17T18:41:52.931Z,4.13
2022-09-17T18:44:21.836Z,8.73
2022-09-17T18:46:51.131Z,7.05
2022-09-17T18:49:18.666Z,9.30
2022-09-17T18:51:46.174Z,16.08
2022-09-17T18:54:13.748Z,7.63
2022-09-17T18:56:41.763Z,11.48
2022-09-17T18:59:10.732Z,10.70
2022-09-17T19:01:38.643Z,18.20
2022-09-17T19:04:07.721Z,15.25
2022-09-17T19:06:35.578Z,14.85
2022-09-17T19:09:05.439Z,15.80
2022-09-17T19:11:35.516Z,13.95
2022-09-17T19:14:03.028Z,7.88
2022-09-17T19:16:30.378Z,9.20
2022-09-17T19:18:57.866Z,10.43
2022-09-17T19:21:25.525Z,5.72
2022-09-17T19:23:53.689Z,7.18
2022-09-17T19:26:27.134Z,2.60
2022-09-17T19:29:00.310Z,4.57
2022-09-17T19:31:28.579Z,1.20
2022-09-17T19:33:58.418Z,1.10
2022-09-17T19:36:26.237Z,1.80
2022-09-17T19:38:55.258Z,1.80
2022-09-17T19:41:23.207Z,1.38
2022-09-17T19:43:53.352Z,0.98
2022-09-17T19:46:24.969Z,0.57
2022-09-17T19:48:56.862Z,3.13
2022-09-17T19:51:26.648Z,0.68
2022-09-17T19:53:54.116Z,0.70
2022-09-17T19:56:25.415Z,0.98
2022-09-17T19:58:53.213Z,2.75
2022-09-17T20:01:21.028Z,1.83
2022-09-17T20:03:48.677Z,1.25
2022-09-17T20:06:20.547Z,1.10
2022-09-17T20:08:52.370Z,0.68
2022-09-17T20:11:25.069Z,1.33
2022-09-17T20:14:06.553Z,2.42
2022-09-17T20:16:36.593Z,0.95
2022-09-17T20:19:06.146Z,2.38
2022-09-17T20:21:34.418Z,1.92
2022-09-17T20:24:02.098Z,3.63
2022-09-17T20:26:29.282Z,3.00
2022-09-17T20:28:57.058Z,2.42
2022-09-17T20:31:30.693Z,0.68
2022-09-17T20:34:02.221Z,0.50
2022-09-17T20:36:36.351Z,2.33
2022-09-17T20:39:13.231Z,1.55
2022-09-17T20:41:42.174Z,1.50
2022-09-17T20:44:09.524Z,0.70
2022-09-17T20:46:36.817Z,1.77
2022-09-17T20:49:05.321Z,0.38
2022-09-17T20:51:33.890Z,2.28
2022-09-17T20:54:01.818Z,0.65
2022-09-17T20:56:33.315Z,0.57
2022-09-17T20:59:13.231Z,0.40
2022-09-17T21:01:44.789Z,0.60
2022-09-17T21:04:19.240Z,0.90
2022-09-17T21:06:49.526Z,2.95
2022-09-17T21:09:17.096Z,1.15
2022-09-17T21:11:46.919Z,1.75
2022-09-17T21:14:18.438Z,4.15
2022-09-17T21:16:46.553Z,1.38
2022-09-17T21:19:16.176Z,3.13
2022-09-17T21:21:44.339Z,4.22
2022-09-17T21:24:11.666Z,9.13
2022-09-17T21:26:39.040Z,5.07
2022-09-17T21:29:06.493Z,2.92
2022-09-17T21:31:37.076Z,5.38
2022-09-17T21:34:09.776Z,1.17
2022-09-17T21:36:39.893Z,2.38
2022-09-17T21:39:16.451Z,2.50
2022-09-17T21:41:46.055Z,1.35
2022-09-17T21:44:14.029Z,1.98
2022-09-17T21:46:42.812Z,2.65
2022-09-17T21:49:11.158Z,2.60
2022-09-17T21:51:42.467Z,2.38
2022-09-17T21:54:15.280Z,2.15
2022-09-17T21:56:46.341Z,5.00
2022-09-17T21:59:16.508Z,0.50
2022-09-17T22:01:48.697Z,0.93
2022-09-17T22:04:22.078Z,1.77
2022-09-17T22:06:50.355Z,2.28
2022-09-17T22:09:25.543Z,0.93
2022-09-17T22:11:53.538Z,0.50
2022-09-17T22:14:24.644Z,1.40
2022-09-17T22:16:56.919Z,0.35
2022-09-17T22:19:25.528Z,1.65
2022-09-17T22:21:55.825Z,0.32
2022-09-17T22:24:24.373Z,0.28
2022-09-17T22:26:57.794Z,1.77
2022-09-17T22:29:31.373Z,0.98
2022-09-17T22:31:58.717Z,0.75
2022-09-17T22:34:26.432Z,2.88
2022-09-17T22:36:53.922Z,0.82
2022-09-17T22:39:22.259Z,0.30
2022-09-17T22:41:50.473Z,0.60
2022-09-17T22:44:19.974Z,0.47
2022-09-17T22:46:51.221Z,0.57
2022-09-17T22:49:19.561Z,0.82
2022-09-17T22:51:47.539Z,0.30
2022-09-17T22:54:17.533Z,1.25
2022-09-17T22:56:47.059Z,0.35
2022-09-17T22:59:14.845Z,0.60
2022-09-17T23:01:42.504Z,0.30
2022-09-17T23:04:10.424Z,0.30
2022-09-17T23:06:42.027Z,0.68
2022-09-17T23:09:12.041Z,0.50
2022-09-17T23:11:40.034Z,0.73
2022-09-17T23:14:12.271Z,1.60
2022-09-17T23:16:44.381Z,1.00
2022-09-17T23:19:12.093Z,2.47
2022-09-17T23:21:39.681Z,0.73
2022-09-17T23:24:08.231Z,0.38
2022-09-17T23:26:35.613Z,0.98
2022-09-17T23:29:05.344Z,1.88
2022-09-17T23:31:37.029Z,0.70
2022-09-17T23:34:06.524Z,1.45
2022-09-17T23:36:37.995Z,0.50
2022-09-17T23:39:07.644Z,0.30
2022-09-17T23:41:40.492Z,0.52
2022-09-17T23:44:14.972Z,0.80
2022-09-17T23:46:45.172Z,0.40
2022-09-17T23:49:14.295Z,0.40
2022-09-17T23:51:41.952Z,0.28
2022-09-17T23:54:09.625Z,2.72
2022-09-17T23:56:37.332Z,0.40
2022-09-17T23:59:04.851Z,0.50
